<?xml version="1.0" encoding="UTF-8" standalone="no" ?>
<gpx xmlns="http://www.topografix.com/GPX/1/1" xmlns:xsi="http://www.w3.org/2001/XMLSchema-instance" xsi:schemaLocation="http://www.topografix.com/GPX/1/1 http://www.topografix.com/GPX/1/1/gpx.xsd" version="1.1" creator="VisuGPX - https://www.visugpx.com">
  <metadata>
    <name>SteLuce_BoisBriandBLoire_20km</name>
    <desc><![CDATA[Proposition J2 14/03/24 20.5km avec tour Ile Clémentine]]></desc>
  </metadata>
  <trk>
    <name><![CDATA[SteLuce_BoisBriandBLoire_1]]></name>
    <extensions>
      <line xmlns="http://www.topografix.com/GPX/gpx_style/0/2">
        <color>0000FF</color>
        <width>4</width>
      </line>
    </extensions>
    <trkseg>
      <trkpt lat="47.24981" lon="-1.48431">
        <ele>13</ele>
        <time>2024-03-11T06:08:47Z</time>
        <extensions>
          <visugpx:TrkExtension xmlns:visugpx="https://www.visugpx.com/editgpx/">
            <visugpx:node>8</visugpx:node>
            </visugpx:TrkExtension>
        </extensions>
      </trkpt>
      <trkpt lat="47.24967" lon="-1.48446">
        <ele>13</ele>
        <time>2024-03-11T06:09:10Z</time>
      </trkpt>
      <trkpt lat="47.24937" lon="-1.48426">
        <ele>12</ele>
        <time>2024-03-11T06:09:54Z</time>
      </trkpt>
      <trkpt lat="47.24933" lon="-1.48433">
        <ele>12</ele>
        <time>2024-03-11T06:10:02Z</time>
      </trkpt>
      <trkpt lat="47.24878" lon="-1.48509">
        <ele>12</ele>
        <time>2024-03-11T06:11:43Z</time>
      </trkpt>
      <trkpt lat="47.24877" lon="-1.48526">
        <ele>13</ele>
        <time>2024-03-11T06:11:58Z</time>
      </trkpt>
      <trkpt lat="47.24868" lon="-1.48546">
        <ele>13</ele>
        <time>2024-03-11T06:12:20Z</time>
      </trkpt>
      <trkpt lat="47.24855" lon="-1.4856">
        <ele>12</ele>
        <time>2024-03-11T06:12:42Z</time>
      </trkpt>
      <trkpt lat="47.24838" lon="-1.48589">
        <ele>12</ele>
        <time>2024-03-11T06:13:16Z</time>
      </trkpt>
      <trkpt lat="47.2483" lon="-1.48603">
        <ele>12</ele>
        <time>2024-03-11T06:13:33Z</time>
      </trkpt>
      <trkpt lat="47.24837" lon="-1.48618">
        <ele>13</ele>
        <time>2024-03-11T06:13:49Z</time>
      </trkpt>
      <trkpt lat="47.2484" lon="-1.48636">
        <ele>13</ele>
        <time>2024-03-11T06:14:06Z</time>
      </trkpt>
      <trkpt lat="47.2485" lon="-1.48652">
        <ele>13</ele>
        <time>2024-03-11T06:14:26Z</time>
      </trkpt>
      <trkpt lat="47.24855" lon="-1.48666">
        <ele>14</ele>
        <time>2024-03-11T06:14:40Z</time>
      </trkpt>
      <trkpt lat="47.24858" lon="-1.48732">
        <ele>15</ele>
        <time>2024-03-11T06:15:40Z</time>
      </trkpt>
      <trkpt lat="47.24865" lon="-1.48795">
        <ele>16</ele>
        <time>2024-03-11T06:16:38Z</time>
      </trkpt>
      <trkpt lat="47.24875" lon="-1.48837">
        <ele>17</ele>
        <time>2024-03-11T06:17:18Z</time>
      </trkpt>
      <trkpt lat="47.24872" lon="-1.48858">
        <ele>16</ele>
        <time>2024-03-11T06:17:38Z</time>
      </trkpt>
      <trkpt lat="47.24883" lon="-1.48867">
        <ele>17</ele>
        <time>2024-03-11T06:17:55Z</time>
      </trkpt>
      <trkpt lat="47.24879" lon="-1.48903">
        <ele>17</ele>
        <time>2024-03-11T06:18:28Z</time>
      </trkpt>
      <trkpt lat="47.249" lon="-1.48898">
        <ele>17</ele>
        <time>2024-03-11T06:18:56Z</time>
      </trkpt>
      <trkpt lat="47.2492" lon="-1.48895">
        <ele>18</ele>
        <time>2024-03-11T06:19:23Z</time>
      </trkpt>
      <trkpt lat="47.24933" lon="-1.4889">
        <ele>18</ele>
        <time>2024-03-11T06:19:41Z</time>
      </trkpt>
      <trkpt lat="47.24951" lon="-1.48887">
        <ele>17</ele>
        <time>2024-03-11T06:20:05Z</time>
      </trkpt>
      <trkpt lat="47.24968" lon="-1.48887">
        <ele>17</ele>
        <time>2024-03-11T06:20:28Z</time>
      </trkpt>
      <trkpt lat="47.24974" lon="-1.48904">
        <ele>17</ele>
        <time>2024-03-11T06:20:45Z</time>
      </trkpt>
      <trkpt lat="47.24972" lon="-1.48936">
        <ele>17</ele>
        <time>2024-03-11T06:21:14Z</time>
      </trkpt>
      <trkpt lat="47.24965" lon="-1.49026">
        <ele>18</ele>
        <time>2024-03-11T06:22:36Z</time>
      </trkpt>
      <trkpt lat="47.24968" lon="-1.49068">
        <ele>18</ele>
        <time>2024-03-11T06:23:14Z</time>
      </trkpt>
      <trkpt lat="47.24957" lon="-1.49208">
        <ele>18</ele>
        <time>2024-03-11T06:25:22Z</time>
      </trkpt>
      <trkpt lat="47.25014" lon="-1.49252">
        <ele>17</ele>
        <time>2024-03-11T06:26:48Z</time>
      </trkpt>
      <trkpt lat="47.25043" lon="-1.49269">
        <ele>17</ele>
        <time>2024-03-11T06:27:30Z</time>
      </trkpt>
      <trkpt lat="47.25051" lon="-1.49281">
        <ele>16</ele>
        <time>2024-03-11T06:27:45Z</time>
      </trkpt>
      <trkpt lat="47.25066" lon="-1.49288">
        <ele>16</ele>
        <time>2024-03-11T06:28:06Z</time>
      </trkpt>
      <trkpt lat="47.25073" lon="-1.49308">
        <ele>17</ele>
        <time>2024-03-11T06:28:26Z</time>
      </trkpt>
      <trkpt lat="47.25067" lon="-1.49348">
        <ele>17</ele>
        <time>2024-03-11T06:29:03Z</time>
      </trkpt>
      <trkpt lat="47.25061" lon="-1.49386">
        <ele>16</ele>
        <time>2024-03-11T06:29:39Z</time>
      </trkpt>
      <trkpt lat="47.25059" lon="-1.49418">
        <ele>16</ele>
        <time>2024-03-11T06:30:08Z</time>
      </trkpt>
      <trkpt lat="47.25042" lon="-1.49405">
        <ele>16</ele>
        <time>2024-03-11T06:30:33Z</time>
      </trkpt>
      <trkpt lat="47.25026" lon="-1.4935">
        <ele>17</ele>
        <time>2024-03-11T06:31:27Z</time>
      </trkpt>
      <trkpt lat="47.24958" lon="-1.493">
        <ele>16</ele>
        <time>2024-03-11T06:33:09Z</time>
      </trkpt>
      <trkpt lat="47.24918" lon="-1.4928">
        <ele>17</ele>
        <time>2024-03-11T06:34:05Z</time>
      </trkpt>
      <trkpt lat="47.24888" lon="-1.49262">
        <ele>16</ele>
        <time>2024-03-11T06:34:49Z</time>
      </trkpt>
      <trkpt lat="47.24845" lon="-1.49301">
        <ele>13</ele>
        <time>2024-03-11T06:35:56Z</time>
      </trkpt>
      <trkpt lat="47.24807" lon="-1.49275">
        <ele>13</ele>
        <time>2024-03-11T06:36:52Z</time>
      </trkpt>
      <trkpt lat="47.24783" lon="-1.49249">
        <ele>12</ele>
        <time>2024-03-11T06:37:32Z</time>
      </trkpt>
      <trkpt lat="47.24755" lon="-1.49209">
        <ele>10</ele>
        <time>2024-03-11T06:38:24Z</time>
      </trkpt>
      <trkpt lat="47.24738" lon="-1.49177">
        <ele>9</ele>
        <time>2024-03-11T06:39:00Z</time>
      </trkpt>
      <trkpt lat="47.24627" lon="-1.49077">
        <ele>7</ele>
        <time>2024-03-11T06:41:54Z</time>
      </trkpt>
      <trkpt lat="47.24628" lon="-1.49063">
        <ele>8</ele>
        <time>2024-03-11T06:42:13Z</time>
      </trkpt>
      <trkpt lat="47.24639" lon="-1.4904">
        <ele>8.1</ele>
      </trkpt>
      <trkpt lat="47.24618" lon="-1.49013">
        <ele>7.5</ele>
      </trkpt>
      <trkpt lat="47.24614" lon="-1.48957">
        <ele>7.6</ele>
      </trkpt>
      <trkpt lat="47.24585" lon="-1.48924">
        <ele>6.8</ele>
      </trkpt>
      <trkpt lat="47.24558" lon="-1.489">
        <ele>6.3</ele>
      </trkpt>
      <trkpt lat="47.24555" lon="-1.48854">
        <ele>7</ele>
      </trkpt>
      <trkpt lat="47.24543" lon="-1.48834">
        <ele>7</ele>
      </trkpt>
      <trkpt lat="47.24529" lon="-1.48845">
        <ele>6.6</ele>
      </trkpt>
      <trkpt lat="47.2451" lon="-1.48836">
        <ele>5.8</ele>
      </trkpt>
      <trkpt lat="47.24503" lon="-1.48807">
        <ele>5.3</ele>
      </trkpt>
      <trkpt lat="47.24488" lon="-1.48801">
        <ele>5.1</ele>
      </trkpt>
      <trkpt lat="47.24473" lon="-1.4874">
        <ele>5.4</ele>
      </trkpt>
      <trkpt lat="47.24455" lon="-1.48708">
        <ele>5.2</ele>
      </trkpt>
      <trkpt lat="47.24452" lon="-1.48682">
        <ele>4.8</ele>
      </trkpt>
      <trkpt lat="47.24431" lon="-1.48674">
        <ele>4.4</ele>
      </trkpt>
      <trkpt lat="47.24403" lon="-1.48657">
        <ele>4.5</ele>
      </trkpt>
      <trkpt lat="47.24365" lon="-1.48655">
        <ele>4</ele>
      </trkpt>
      <trkpt lat="47.24365" lon="-1.48637">
        <ele>7</ele>
        <time>2024-03-11T07:05:16Z</time>
      </trkpt>
      <trkpt lat="47.24364" lon="-1.48628">
        <ele>7</ele>
        <time>2024-03-11T07:05:24Z</time>
      </trkpt>
      <trkpt lat="47.24351" lon="-1.48613">
        <ele>6</ele>
        <time>2024-03-11T07:05:47Z</time>
      </trkpt>
      <trkpt lat="47.24333" lon="-1.4863">
        <ele>7</ele>
        <time>2024-03-11T07:06:15Z</time>
      </trkpt>
      <trkpt lat="47.24306" lon="-1.48631">
        <ele>6</ele>
        <time>2024-03-11T07:06:51Z</time>
      </trkpt>
      <trkpt lat="47.24279" lon="-1.48637">
        <ele>6</ele>
        <time>2024-03-11T07:07:28Z</time>
      </trkpt>
      <trkpt lat="47.24245" lon="-1.48627">
        <ele>5</ele>
        <time>2024-03-11T07:08:14Z</time>
      </trkpt>
      <trkpt lat="47.24209" lon="-1.48605">
        <ele>5</ele>
        <time>2024-03-11T07:09:06Z</time>
      </trkpt>
      <trkpt lat="47.24211" lon="-1.48583">
        <ele>3</ele>
        <time>2024-03-11T07:09:26Z</time>
      </trkpt>
      <trkpt lat="47.24214" lon="-1.48557">
        <ele>3</ele>
        <time>2024-03-11T07:09:50Z</time>
      </trkpt>
      <trkpt lat="47.24221" lon="-1.48527">
        <ele>3</ele>
        <time>2024-03-11T07:10:19Z</time>
      </trkpt>
      <trkpt lat="47.24196" lon="-1.48522">
        <ele>4</ele>
        <time>2024-03-11T07:10:52Z</time>
      </trkpt>
      <trkpt lat="47.24181" lon="-1.48542">
        <ele>4</ele>
        <time>2024-03-11T07:11:19Z</time>
      </trkpt>
      <trkpt lat="47.24182" lon="-1.48583">
        <ele>4</ele>
        <time>2024-03-11T07:11:56Z</time>
      </trkpt>
      <trkpt lat="47.24176" lon="-1.48605">
        <ele>6</ele>
        <time>2024-03-11T07:12:18Z</time>
      </trkpt>
      <trkpt lat="47.24149" lon="-1.48627">
        <ele>7</ele>
        <time>2024-03-11T07:12:59Z</time>
      </trkpt>
      <trkpt lat="47.2412" lon="-1.48639">
        <ele>7</ele>
        <time>2024-03-11T07:13:39Z</time>
      </trkpt>
      <trkpt lat="47.24099" lon="-1.48643">
        <ele>7</ele>
        <time>2024-03-11T07:14:07Z</time>
      </trkpt>
      <trkpt lat="47.24088" lon="-1.48627">
        <ele>6</ele>
        <time>2024-03-11T07:14:28Z</time>
      </trkpt>
      <trkpt lat="47.2409" lon="-1.48614">
        <ele>5</ele>
        <time>2024-03-11T07:14:40Z</time>
      </trkpt>
      <trkpt lat="47.24089" lon="-1.4859">
        <ele>4</ele>
        <time>2024-03-11T07:15:02Z</time>
      </trkpt>
      <trkpt lat="47.24067" lon="-1.48545">
        <ele>4</ele>
        <time>2024-03-11T07:15:52Z</time>
      </trkpt>
      <trkpt lat="47.24045" lon="-1.4852">
        <ele>4</ele>
        <time>2024-03-11T07:16:29Z</time>
      </trkpt>
      <trkpt lat="47.23999" lon="-1.48445">
        <ele>4</ele>
        <time>2024-03-11T07:18:01Z</time>
      </trkpt>
      <trkpt lat="47.24035" lon="-1.48399">
        <ele>4</ele>
        <time>2024-03-11T07:19:04Z</time>
      </trkpt>
      <trkpt lat="47.24065" lon="-1.48366">
        <ele>5</ele>
        <time>2024-03-11T07:19:54Z</time>
      </trkpt>
      <trkpt lat="47.24085" lon="-1.48345">
        <ele>6</ele>
        <time>2024-03-11T07:20:27Z</time>
      </trkpt>
      <trkpt lat="47.24114" lon="-1.48313">
        <ele>6</ele>
        <time>2024-03-11T07:21:16Z</time>
      </trkpt>
      <trkpt lat="47.24124" lon="-1.48293">
        <ele>6</ele>
        <time>2024-03-11T07:21:38Z</time>
      </trkpt>
      <trkpt lat="47.24153" lon="-1.48267">
        <ele>6</ele>
        <time>2024-03-11T07:22:23Z</time>
      </trkpt>
      <trkpt lat="47.24241" lon="-1.4818">
        <ele>6</ele>
        <time>2024-03-11T07:24:45Z</time>
      </trkpt>
      <trkpt lat="47.24151" lon="-1.48113">
        <ele>9</ele>
        <time>2024-03-11T07:26:59Z</time>
      </trkpt>
      <trkpt lat="47.24104" lon="-1.48049">
        <ele>8</ele>
        <time>2024-03-11T07:28:25Z</time>
      </trkpt>
      <trkpt lat="47.23987" lon="-1.47725">
        <ele>7</ele>
        <time>2024-03-11T07:33:57Z</time>
      </trkpt>
      <trkpt lat="47.24158" lon="-1.47605">
        <ele>6</ele>
        <time>2024-03-11T07:38:10Z</time>
      </trkpt>
      <trkpt lat="47.24319" lon="-1.47541">
        <ele>9</ele>
        <time>2024-03-11T07:41:53Z</time>
      </trkpt>
      <trkpt lat="47.24339" lon="-1.47519">
        <ele>8</ele>
        <time>2024-03-11T07:42:26Z</time>
      </trkpt>
      <trkpt lat="47.24338" lon="-1.47501">
        <ele>8</ele>
        <time>2024-03-11T07:42:42Z</time>
      </trkpt>
      <trkpt lat="47.24324" lon="-1.47494">
        <ele>8</ele>
        <time>2024-03-11T07:43:02Z</time>
      </trkpt>
      <trkpt lat="47.24298" lon="-1.4748">
        <ele>7</ele>
        <time>2024-03-11T07:43:39Z</time>
      </trkpt>
      <trkpt lat="47.24269" lon="-1.47443">
        <ele>6</ele>
        <time>2024-03-11T07:44:30Z</time>
      </trkpt>
      <trkpt lat="47.24262" lon="-1.47422">
        <ele>5</ele>
        <time>2024-03-11T07:44:51Z</time>
      </trkpt>
      <trkpt lat="47.24235" lon="-1.47401">
        <ele>5</ele>
        <time>2024-03-11T07:45:32Z</time>
      </trkpt>
      <trkpt lat="47.2422" lon="-1.47384">
        <ele>4</ele>
        <time>2024-03-11T07:45:57Z</time>
      </trkpt>
      <trkpt lat="47.24196" lon="-1.47372">
        <ele>4</ele>
        <time>2024-03-11T07:46:31Z</time>
      </trkpt>
      <trkpt lat="47.24177" lon="-1.47341">
        <ele>4</ele>
        <time>2024-03-11T07:47:09Z</time>
      </trkpt>
      <trkpt lat="47.24168" lon="-1.47287">
        <ele>5</ele>
        <time>2024-03-11T07:47:59Z</time>
      </trkpt>
      <trkpt lat="47.24174" lon="-1.47254">
        <ele>5</ele>
        <time>2024-03-11T07:48:30Z</time>
      </trkpt>
      <trkpt lat="47.2419" lon="-1.47237">
        <ele>5</ele>
        <time>2024-03-11T07:48:57Z</time>
      </trkpt>
      <trkpt lat="47.24213" lon="-1.47253">
        <ele>6</ele>
        <time>2024-03-11T07:49:31Z</time>
      </trkpt>
      <trkpt lat="47.24241" lon="-1.47289">
        <ele>5</ele>
        <time>2024-03-11T07:50:20Z</time>
      </trkpt>
      <trkpt lat="47.24249" lon="-1.47274">
        <ele>6</ele>
        <time>2024-03-11T07:50:37Z</time>
      </trkpt>
      <trkpt lat="47.24239" lon="-1.47256">
        <ele>6</ele>
        <time>2024-03-11T07:50:59Z</time>
      </trkpt>
      <trkpt lat="47.24225" lon="-1.47239">
        <ele>6</ele>
        <time>2024-03-11T07:51:23Z</time>
      </trkpt>
      <trkpt lat="47.24217" lon="-1.47212">
        <ele>5</ele>
        <time>2024-03-11T07:51:49Z</time>
      </trkpt>
      <trkpt lat="47.24227" lon="-1.4716">
        <ele>4</ele>
        <time>2024-03-11T07:52:38Z</time>
      </trkpt>
      <trkpt lat="47.24247" lon="-1.47109">
        <ele>4</ele>
        <time>2024-03-11T07:53:32Z</time>
      </trkpt>
      <trkpt lat="47.24265" lon="-1.47056">
        <ele>4</ele>
        <time>2024-03-11T07:54:25Z</time>
      </trkpt>
      <trkpt lat="47.24276" lon="-1.47001">
        <ele>4</ele>
        <time>2024-03-11T07:55:17Z</time>
      </trkpt>
      <trkpt lat="47.24265" lon="-1.46943">
        <ele>4</ele>
        <time>2024-03-11T07:56:12Z</time>
      </trkpt>
      <trkpt lat="47.24268" lon="-1.46915">
        <ele>4</ele>
        <time>2024-03-11T07:56:38Z</time>
      </trkpt>
      <trkpt lat="47.24256" lon="-1.46902">
        <ele>5</ele>
      </trkpt>
      <trkpt lat="47.24254" lon="-1.469">
        <ele>5</ele>
      </trkpt>
      <trkpt lat="47.24116" lon="-1.46765">
        <ele>6</ele>
      </trkpt>
      <trkpt lat="47.24109" lon="-1.46747">
        <ele>6</ele>
      </trkpt>
      <trkpt lat="47.24091" lon="-1.46728">
        <ele>6.6</ele>
      </trkpt>
      <trkpt lat="47.24086" lon="-1.46718">
        <ele>6.8</ele>
      </trkpt>
      <trkpt lat="47.24082" lon="-1.46713">
        <ele>6.6</ele>
      </trkpt>
      <trkpt lat="47.24079" lon="-1.46727">
        <ele>6.7</ele>
      </trkpt>
      <trkpt lat="47.24076" lon="-1.4674">
        <ele>6.4</ele>
      </trkpt>
      <trkpt lat="47.24076" lon="-1.4674">
        <ele>6.4</ele>
      </trkpt>
      <trkpt lat="47.24076" lon="-1.4674">
        <ele>6.4</ele>
      </trkpt>
      <trkpt lat="47.24076" lon="-1.4674">
        <ele>6.4</ele>
      </trkpt>
      <trkpt lat="47.24076" lon="-1.4674">
        <ele>6.4</ele>
      </trkpt>
      <trkpt lat="47.24076" lon="-1.4674">
        <ele>6.4</ele>
      </trkpt>
      <trkpt lat="47.24076" lon="-1.4674">
        <ele>6.4</ele>
      </trkpt>
      <trkpt lat="47.24076" lon="-1.4674">
        <ele>6.4</ele>
      </trkpt>
      <trkpt lat="47.24076" lon="-1.4674">
        <ele>6.4</ele>
      </trkpt>
      <trkpt lat="47.24076" lon="-1.4674">
        <ele>6.4</ele>
      </trkpt>
      <trkpt lat="47.24082" lon="-1.46713">
        <ele>6.6</ele>
      </trkpt>
      <trkpt lat="47.24077" lon="-1.4671">
        <ele>6.1</ele>
      </trkpt>
      <trkpt lat="47.24064" lon="-1.46729">
        <ele>6.4</ele>
      </trkpt>
      <trkpt lat="47.24045" lon="-1.4675">
        <ele>6.6</ele>
      </trkpt>
      <trkpt lat="47.24013" lon="-1.46782">
        <ele>4.4</ele>
      </trkpt>
      <trkpt lat="47.23953" lon="-1.46837">
        <ele>4</ele>
      </trkpt>
      <trkpt lat="47.23915" lon="-1.4688">
        <ele>5.2</ele>
      </trkpt>
      <trkpt lat="47.23871" lon="-1.46935">
        <ele>6.1</ele>
      </trkpt>
      <trkpt lat="47.23835" lon="-1.46984">
        <ele>5.9</ele>
      </trkpt>
      <trkpt lat="47.23827" lon="-1.47002">
        <ele>5.7</ele>
      </trkpt>
      <trkpt lat="47.23818" lon="-1.47015">
        <ele>5.2</ele>
      </trkpt>
      <trkpt lat="47.2381" lon="-1.47022">
        <ele>5.3</ele>
      </trkpt>
      <trkpt lat="47.23771" lon="-1.47081">
        <ele>5.6</ele>
      </trkpt>
      <trkpt lat="47.23751" lon="-1.47109">
        <ele>6.6</ele>
      </trkpt>
      <trkpt lat="47.23732" lon="-1.47129">
        <ele>5</ele>
      </trkpt>
      <trkpt lat="47.23699" lon="-1.47174">
        <ele>4.9</ele>
      </trkpt>
      <trkpt lat="47.23668" lon="-1.47219">
        <ele>5.6</ele>
      </trkpt>
      <trkpt lat="47.23617" lon="-1.47278">
        <ele>5.4</ele>
      </trkpt>
      <trkpt lat="47.23591" lon="-1.47304">
        <ele>5.1</ele>
      </trkpt>
      <trkpt lat="47.23552" lon="-1.47337">
        <ele>5.6</ele>
      </trkpt>
      <trkpt lat="47.23489" lon="-1.47384">
        <ele>5</ele>
      </trkpt>
      <trkpt lat="47.23463" lon="-1.474">
        <ele>4.8</ele>
      </trkpt>
      <trkpt lat="47.23385" lon="-1.47448">
        <ele>5.1</ele>
      </trkpt>
      <trkpt lat="47.2339" lon="-1.47451">
        <ele>5.5</ele>
      </trkpt>
      <trkpt lat="47.23372" lon="-1.47462">
        <ele>5.7</ele>
      </trkpt>
      <trkpt lat="47.23349" lon="-1.4747">
        <ele>6.2</ele>
      </trkpt>
      <trkpt lat="47.23355" lon="-1.47481">
        <ele>7.7</ele>
      </trkpt>
      <trkpt lat="47.23356" lon="-1.47483">
        <ele>8.1</ele>
      </trkpt>
      <trkpt lat="47.23354" lon="-1.47486">
        <ele>8.6</ele>
      </trkpt>
      <trkpt lat="47.23353" lon="-1.47488">
        <ele>9</ele>
      </trkpt>
      <trkpt lat="47.23354" lon="-1.47489">
        <ele>9.1</ele>
      </trkpt>
      <trkpt lat="47.23356" lon="-1.47493">
        <ele>9.8</ele>
        <extensions>
          <visugpx:TrkExtension xmlns:visugpx="https://www.visugpx.com/editgpx/">
            <visugpx:node>1</visugpx:node>
            </visugpx:TrkExtension>
        </extensions>
      </trkpt>
      <trkpt lat="47.23354" lon="-1.47489">
        <ele>9.1</ele>
      </trkpt>
      <trkpt lat="47.23353" lon="-1.47488">
        <ele>9</ele>
      </trkpt>
      <trkpt lat="47.23116" lon="-1.47077">
        <ele>10.3</ele>
      </trkpt>
      <trkpt lat="47.23104" lon="-1.47052">
        <ele>9.2</ele>
      </trkpt>
      <trkpt lat="47.23074" lon="-1.46999">
        <ele>8.9</ele>
      </trkpt>
      <trkpt lat="47.23074" lon="-1.46993">
        <ele>8.4</ele>
      </trkpt>
      <trkpt lat="47.23064" lon="-1.46981">
        <ele>8.2</ele>
      </trkpt>
      <trkpt lat="47.23041" lon="-1.46935">
        <ele>6</ele>
      </trkpt>
      <trkpt lat="47.23032" lon="-1.46924">
        <ele>5.2</ele>
      </trkpt>
      <trkpt lat="47.23038" lon="-1.46915">
        <ele>4.6</ele>
      </trkpt>
      <trkpt lat="47.2304" lon="-1.46906">
        <ele>4.3</ele>
      </trkpt>
      <trkpt lat="47.23042" lon="-1.46867">
        <ele>3.5</ele>
      </trkpt>
      <trkpt lat="47.23042" lon="-1.46801">
        <ele>3.4</ele>
      </trkpt>
      <trkpt lat="47.23039" lon="-1.46767">
        <ele>2.8</ele>
      </trkpt>
      <trkpt lat="47.23044" lon="-1.46745">
        <ele>3.5</ele>
      </trkpt>
      <trkpt lat="47.23043" lon="-1.46733">
        <ele>4.5</ele>
      </trkpt>
      <trkpt lat="47.23044" lon="-1.46707">
        <ele>4.9</ele>
      </trkpt>
      <trkpt lat="47.23049" lon="-1.46682">
        <ele>4.5</ele>
      </trkpt>
      <trkpt lat="47.23059" lon="-1.46656">
        <ele>5.1</ele>
      </trkpt>
      <trkpt lat="47.23069" lon="-1.46634">
        <ele>6.3</ele>
      </trkpt>
      <trkpt lat="47.23081" lon="-1.46618">
        <ele>6.4</ele>
      </trkpt>
      <trkpt lat="47.23101" lon="-1.46596">
        <ele>6.3</ele>
        <extensions>
          <visugpx:TrkExtension xmlns:visugpx="https://www.visugpx.com/editgpx/">
            <visugpx:node>2</visugpx:node>
            </visugpx:TrkExtension>
        </extensions>
      </trkpt>
      <trkpt lat="47.23163" lon="-1.46526">
        <ele>6.2</ele>
      </trkpt>
      <trkpt lat="47.23263" lon="-1.46399">
        <ele>5.7</ele>
      </trkpt>
      <trkpt lat="47.23284" lon="-1.46376">
        <ele>5.6</ele>
      </trkpt>
      <trkpt lat="47.23294" lon="-1.46365">
        <ele>5.3</ele>
      </trkpt>
      <trkpt lat="47.23309" lon="-1.46339">
        <ele>6.7</ele>
      </trkpt>
      <trkpt lat="47.23357" lon="-1.46275">
        <ele>6.1</ele>
      </trkpt>
      <trkpt lat="47.23417" lon="-1.462">
        <ele>6.4</ele>
      </trkpt>
      <trkpt lat="47.23447" lon="-1.46168">
        <ele>6.6</ele>
      </trkpt>
      <trkpt lat="47.2349" lon="-1.46127">
        <ele>6.4</ele>
      </trkpt>
      <trkpt lat="47.23505" lon="-1.4611">
        <ele>8</ele>
      </trkpt>
      <trkpt lat="47.23521" lon="-1.46096">
        <ele>8</ele>
      </trkpt>
      <trkpt lat="47.23557" lon="-1.46062">
        <ele>7.8</ele>
      </trkpt>
      <trkpt lat="47.2356" lon="-1.46059">
        <ele>7.5</ele>
      </trkpt>
      <trkpt lat="47.23573" lon="-1.46059">
        <ele>6.1</ele>
      </trkpt>
      <trkpt lat="47.23576" lon="-1.46057">
        <ele>5.8</ele>
      </trkpt>
      <trkpt lat="47.23587" lon="-1.46046">
        <ele>5.7</ele>
      </trkpt>
      <trkpt lat="47.23607" lon="-1.46029">
        <ele>5.3</ele>
      </trkpt>
      <trkpt lat="47.23628" lon="-1.46017">
        <ele>5.2</ele>
      </trkpt>
      <trkpt lat="47.23765" lon="-1.45982">
        <ele>6.6</ele>
      </trkpt>
      <trkpt lat="47.23774" lon="-1.45976">
        <ele>6.8</ele>
      </trkpt>
      <trkpt lat="47.23796" lon="-1.45969">
        <ele>6.4</ele>
      </trkpt>
      <trkpt lat="47.23803" lon="-1.45964">
        <ele>6.3</ele>
      </trkpt>
      <trkpt lat="47.23934" lon="-1.4593">
        <ele>7</ele>
      </trkpt>
      <trkpt lat="47.23946" lon="-1.45926">
        <ele>7.1</ele>
      </trkpt>
      <trkpt lat="47.23955" lon="-1.45919">
        <ele>6.3</ele>
      </trkpt>
      <trkpt lat="47.23966" lon="-1.45905">
        <ele>5.7</ele>
      </trkpt>
      <trkpt lat="47.241" lon="-1.4569">
        <ele>4.7</ele>
      </trkpt>
      <trkpt lat="47.24116" lon="-1.4566">
        <ele>6.2</ele>
      </trkpt>
      <trkpt lat="47.24136" lon="-1.45612">
        <ele>5</ele>
      </trkpt>
      <trkpt lat="47.24187" lon="-1.45451">
        <ele>6.8</ele>
      </trkpt>
      <trkpt lat="47.24196" lon="-1.45422">
        <ele>7.9</ele>
      </trkpt>
      <trkpt lat="47.24201" lon="-1.45413">
        <ele>7.5</ele>
      </trkpt>
      <trkpt lat="47.24206" lon="-1.45406">
        <ele>7.1</ele>
      </trkpt>
      <trkpt lat="47.24238" lon="-1.45301">
        <ele>5.3</ele>
      </trkpt>
      <trkpt lat="47.24245" lon="-1.4527">
        <ele>6.5</ele>
      </trkpt>
      <trkpt lat="47.24251" lon="-1.45266">
        <ele>6.8</ele>
      </trkpt>
      <trkpt lat="47.24256" lon="-1.45253">
        <ele>7.8</ele>
      </trkpt>
      <trkpt lat="47.24261" lon="-1.45234">
        <ele>8.6</ele>
      </trkpt>
      <trkpt lat="47.24308" lon="-1.44648">
        <ele>6.7</ele>
      </trkpt>
      <trkpt lat="47.24312" lon="-1.44629">
        <ele>7.4</ele>
      </trkpt>
      <trkpt lat="47.24314" lon="-1.446">
        <ele>8</ele>
      </trkpt>
      <trkpt lat="47.24314" lon="-1.44573">
        <ele>8</ele>
      </trkpt>
      <trkpt lat="47.24334" lon="-1.4431">
        <ele>5</ele>
      </trkpt>
      <trkpt lat="47.24336" lon="-1.44305">
        <ele>5</ele>
      </trkpt>
      <trkpt lat="47.24338" lon="-1.44299">
        <ele>5.5</ele>
      </trkpt>
      <trkpt lat="47.2434" lon="-1.44282">
        <ele>6.7</ele>
      </trkpt>
      <trkpt lat="47.24339" lon="-1.4423">
        <ele>8</ele>
      </trkpt>
      <trkpt lat="47.24348" lon="-1.44181">
        <ele>6.2</ele>
      </trkpt>
      <trkpt lat="47.24365" lon="-1.44139">
        <ele>7</ele>
      </trkpt>
      <trkpt lat="47.24431" lon="-1.44009">
        <ele>6.3</ele>
      </trkpt>
      <trkpt lat="47.24437" lon="-1.44">
        <ele>5.5</ele>
      </trkpt>
      <trkpt lat="47.24445" lon="-1.43992">
        <ele>5.6</ele>
      </trkpt>
      <trkpt lat="47.24482" lon="-1.43898">
        <ele>7.3</ele>
      </trkpt>
      <trkpt lat="47.24524" lon="-1.4376">
        <ele>4.6</ele>
      </trkpt>
      <trkpt lat="47.24534" lon="-1.43731">
        <ele>6</ele>
      </trkpt>
      <trkpt lat="47.2454" lon="-1.43717">
        <ele>5.9</ele>
      </trkpt>
      <trkpt lat="47.24547" lon="-1.43707">
        <ele>5.5</ele>
      </trkpt>
      <trkpt lat="47.24561" lon="-1.43696">
        <ele>5.1</ele>
        <extensions>
          <visugpx:TrkExtension xmlns:visugpx="https://www.visugpx.com/editgpx/">
            <visugpx:node>3</visugpx:node>
            </visugpx:TrkExtension>
        </extensions>
      </trkpt>
      <trkpt lat="47.24564" lon="-1.43694">
        <ele>4.8</ele>
      </trkpt>
      <trkpt lat="47.24583" lon="-1.43672">
        <ele>5.3</ele>
      </trkpt>
      <trkpt lat="47.24596" lon="-1.43649">
        <ele>5.6</ele>
      </trkpt>
      <trkpt lat="47.24616" lon="-1.43631">
        <ele>5.2</ele>
      </trkpt>
      <trkpt lat="47.24636" lon="-1.43616">
        <ele>4.6</ele>
      </trkpt>
      <trkpt lat="47.2465" lon="-1.43601">
        <ele>4.9</ele>
      </trkpt>
      <trkpt lat="47.24663" lon="-1.43587">
        <ele>5</ele>
      </trkpt>
      <trkpt lat="47.24681" lon="-1.43573">
        <ele>5.3</ele>
      </trkpt>
      <trkpt lat="47.24692" lon="-1.43552">
        <ele>4.6</ele>
      </trkpt>
      <trkpt lat="47.24703" lon="-1.43513">
        <ele>6</ele>
      </trkpt>
      <trkpt lat="47.24712" lon="-1.43486">
        <ele>5.5</ele>
      </trkpt>
      <trkpt lat="47.24727" lon="-1.43457">
        <ele>6.6</ele>
      </trkpt>
      <trkpt lat="47.24738" lon="-1.4344">
        <ele>6.2</ele>
      </trkpt>
      <trkpt lat="47.24755" lon="-1.43413">
        <ele>5.7</ele>
      </trkpt>
      <trkpt lat="47.24791" lon="-1.43371">
        <ele>6.9</ele>
      </trkpt>
      <trkpt lat="47.24803" lon="-1.43363">
        <ele>7.7</ele>
      </trkpt>
      <trkpt lat="47.2484" lon="-1.43337">
        <ele>8.2</ele>
      </trkpt>
      <trkpt lat="47.24844" lon="-1.43339">
        <ele>7.7</ele>
      </trkpt>
      <trkpt lat="47.24879" lon="-1.43314">
        <ele>7</ele>
      </trkpt>
      <trkpt lat="47.24881" lon="-1.43309">
        <ele>7.6</ele>
      </trkpt>
      <trkpt lat="47.24966" lon="-1.43253">
        <ele>6.2</ele>
      </trkpt>
      <trkpt lat="47.24988" lon="-1.43239">
        <ele>4.7</ele>
      </trkpt>
      <trkpt lat="47.25028" lon="-1.43208">
        <ele>5.1</ele>
      </trkpt>
      <trkpt lat="47.2506" lon="-1.43178">
        <ele>5.5</ele>
      </trkpt>
      <trkpt lat="47.25152" lon="-1.43061">
        <ele>6.1</ele>
      </trkpt>
      <trkpt lat="47.25168" lon="-1.43048">
        <ele>5.8</ele>
      </trkpt>
      <trkpt lat="47.252" lon="-1.43007">
        <ele>5.9</ele>
      </trkpt>
      <trkpt lat="47.25223" lon="-1.42986">
        <ele>6.4</ele>
      </trkpt>
      <trkpt lat="47.25335" lon="-1.42919">
        <ele>5.82</ele>
      </trkpt>
      <trkpt lat="47.25384" lon="-1.4289">
        <ele>6.4</ele>
      </trkpt>
      <trkpt lat="47.25472" lon="-1.4283">
        <ele>5.3</ele>
      </trkpt>
      <trkpt lat="47.25647" lon="-1.42687">
        <ele>5.5</ele>
      </trkpt>
      <trkpt lat="47.2567" lon="-1.42664">
        <ele>7.4</ele>
      </trkpt>
      <trkpt lat="47.25676" lon="-1.42649">
        <ele>7.2</ele>
      </trkpt>
      <trkpt lat="47.25715" lon="-1.42624">
        <ele>8.6</ele>
      </trkpt>
      <trkpt lat="47.25721" lon="-1.42629">
        <ele>8.7</ele>
      </trkpt>
      <trkpt lat="47.25724" lon="-1.42628">
        <ele>8.6</ele>
        <extensions>
          <visugpx:TrkExtension xmlns:visugpx="https://www.visugpx.com/editgpx/">
            <visugpx:node>4</visugpx:node>
            </visugpx:TrkExtension>
        </extensions>
      </trkpt>
      <trkpt lat="47.25728" lon="-1.42624">
        <ele>8.5</ele>
      </trkpt>
      <trkpt lat="47.25733" lon="-1.42634">
        <ele>6.9</ele>
      </trkpt>
      <trkpt lat="47.25841" lon="-1.42897">
        <ele>5.8</ele>
      </trkpt>
      <trkpt lat="47.25894" lon="-1.4303">
        <ele>8.4</ele>
      </trkpt>
      <trkpt lat="47.25918" lon="-1.43091">
        <ele>8</ele>
      </trkpt>
      <trkpt lat="47.25928" lon="-1.43112">
        <ele>7.6</ele>
      </trkpt>
      <trkpt lat="47.25937" lon="-1.43128">
        <ele>8</ele>
      </trkpt>
      <trkpt lat="47.25968" lon="-1.43172">
        <ele>7</ele>
      </trkpt>
      <trkpt lat="47.26216" lon="-1.4353">
        <ele>4.9</ele>
        <extensions>
          <visugpx:TrkExtension xmlns:visugpx="https://www.visugpx.com/editgpx/">
            <visugpx:node>5</visugpx:node>
            </visugpx:TrkExtension>
        </extensions>
      </trkpt>
      <trkpt lat="47.26225" lon="-1.43544">
        <ele>6.3</ele>
      </trkpt>
      <trkpt lat="47.26237" lon="-1.43559">
        <ele>7.7</ele>
      </trkpt>
      <trkpt lat="47.26216" lon="-1.43588">
        <ele>7.3</ele>
      </trkpt>
      <trkpt lat="47.26181" lon="-1.43635">
        <ele>6</ele>
      </trkpt>
      <trkpt lat="47.26123" lon="-1.43725">
        <ele>6</ele>
      </trkpt>
      <trkpt lat="47.26114" lon="-1.43737">
        <ele>6</ele>
      </trkpt>
      <trkpt lat="47.26103" lon="-1.43749">
        <ele>5.7</ele>
      </trkpt>
      <trkpt lat="47.26087" lon="-1.43771">
        <ele>5.1</ele>
      </trkpt>
      <trkpt lat="47.2608" lon="-1.43779">
        <ele>4.9</ele>
      </trkpt>
      <trkpt lat="47.26077" lon="-1.43783">
        <ele>5</ele>
      </trkpt>
      <trkpt lat="47.26055" lon="-1.43814">
        <ele>5</ele>
      </trkpt>
      <trkpt lat="47.26043" lon="-1.43848">
        <ele>4.8</ele>
      </trkpt>
      <trkpt lat="47.26034" lon="-1.43864">
        <ele>5</ele>
      </trkpt>
      <trkpt lat="47.25883" lon="-1.44029">
        <ele>5</ele>
      </trkpt>
      <trkpt lat="47.25877" lon="-1.44038">
        <ele>5</ele>
      </trkpt>
      <trkpt lat="47.25873" lon="-1.44049">
        <ele>5</ele>
      </trkpt>
      <trkpt lat="47.25871" lon="-1.44061">
        <ele>5.2</ele>
      </trkpt>
      <trkpt lat="47.25863" lon="-1.44082">
        <ele>6</ele>
      </trkpt>
      <trkpt lat="47.25853" lon="-1.44097">
        <ele>5.7</ele>
      </trkpt>
      <trkpt lat="47.25747" lon="-1.44219">
        <ele>5.9</ele>
      </trkpt>
      <trkpt lat="47.25708" lon="-1.44268">
        <ele>5.8</ele>
      </trkpt>
      <trkpt lat="47.25695" lon="-1.44283">
        <ele>6</ele>
      </trkpt>
      <trkpt lat="47.25662" lon="-1.44326">
        <ele>6</ele>
      </trkpt>
      <trkpt lat="47.25603" lon="-1.44391">
        <ele>6.3</ele>
      </trkpt>
      <trkpt lat="47.25563" lon="-1.4444">
        <ele>6</ele>
      </trkpt>
      <trkpt lat="47.25517" lon="-1.44509">
        <ele>5.7</ele>
      </trkpt>
      <trkpt lat="47.25448" lon="-1.44608">
        <ele>5.8</ele>
      </trkpt>
      <trkpt lat="47.25366" lon="-1.44715">
        <ele>5.7</ele>
      </trkpt>
      <trkpt lat="47.25601" lon="-1.45123">
        <ele>7.8</ele>
      </trkpt>
      <trkpt lat="47.25512" lon="-1.45376">
        <ele>8.7</ele>
      </trkpt>
      <trkpt lat="47.25475" lon="-1.45439">
        <ele>8.8</ele>
      </trkpt>
      <trkpt lat="47.25434" lon="-1.45545">
        <ele>8.6</ele>
      </trkpt>
      <trkpt lat="47.25362" lon="-1.45446">
        <ele>7</ele>
      </trkpt>
      <trkpt lat="47.25278" lon="-1.45363">
        <ele>6.9</ele>
      </trkpt>
      <trkpt lat="47.25073" lon="-1.4521">
        <ele>6</ele>
      </trkpt>
      <trkpt lat="47.24982" lon="-1.45079">
        <ele>5.2</ele>
      </trkpt>
      <trkpt lat="47.24932" lon="-1.45136">
        <ele>5.5</ele>
      </trkpt>
      <trkpt lat="47.24901" lon="-1.45173">
        <ele>5.6</ele>
      </trkpt>
      <trkpt lat="47.24873" lon="-1.45208">
        <ele>5.4</ele>
      </trkpt>
      <trkpt lat="47.2483" lon="-1.45279">
        <ele>5.9</ele>
      </trkpt>
      <trkpt lat="47.24785" lon="-1.45369">
        <ele>6.2</ele>
      </trkpt>
      <trkpt lat="47.24779" lon="-1.45385">
        <ele>6.8</ele>
      </trkpt>
      <trkpt lat="47.24746" lon="-1.45474">
        <ele>6.8</ele>
      </trkpt>
      <trkpt lat="47.24731" lon="-1.45507">
        <ele>6</ele>
      </trkpt>
      <trkpt lat="47.24676" lon="-1.45676">
        <ele>6.2</ele>
      </trkpt>
      <trkpt lat="47.24666" lon="-1.45711">
        <ele>6</ele>
      </trkpt>
      <trkpt lat="47.2466" lon="-1.45744">
        <ele>5.7</ele>
      </trkpt>
      <trkpt lat="47.24646" lon="-1.45798">
        <ele>6</ele>
      </trkpt>
      <trkpt lat="47.24622" lon="-1.4588">
        <ele>5.8</ele>
      </trkpt>
      <trkpt lat="47.24616" lon="-1.45899">
        <ele>6</ele>
        <extensions>
          <visugpx:TrkExtension xmlns:visugpx="https://www.visugpx.com/editgpx/">
            <visugpx:node>6</visugpx:node>
            </visugpx:TrkExtension>
        </extensions>
      </trkpt>
      <trkpt lat="47.24597" lon="-1.45949">
        <ele>6</ele>
      </trkpt>
      <trkpt lat="47.24467" lon="-1.46169">
        <ele>5.9</ele>
      </trkpt>
      <trkpt lat="47.24438" lon="-1.46205">
        <ele>5.7</ele>
      </trkpt>
      <trkpt lat="47.24399" lon="-1.4614">
        <ele>4.2</ele>
      </trkpt>
      <trkpt lat="47.24401" lon="-1.46108">
        <ele>4.9</ele>
      </trkpt>
      <trkpt lat="47.24421" lon="-1.46065">
        <ele>4.9</ele>
      </trkpt>
      <trkpt lat="47.24461" lon="-1.46037">
        <ele>5.4</ele>
      </trkpt>
      <trkpt lat="47.24508" lon="-1.45927">
        <ele>6</ele>
      </trkpt>
      <trkpt lat="47.24598" lon="-1.4563">
        <ele>4.3</ele>
      </trkpt>
      <trkpt lat="47.24597" lon="-1.45602">
        <ele>2.8</ele>
      </trkpt>
      <trkpt lat="47.24589" lon="-1.456">
        <ele>2.1</ele>
      </trkpt>
      <trkpt lat="47.24515" lon="-1.45738">
        <ele>3.3</ele>
      </trkpt>
      <trkpt lat="47.24446" lon="-1.45906">
        <ele>5</ele>
      </trkpt>
      <trkpt lat="47.24379" lon="-1.45971">
        <ele>3.9</ele>
      </trkpt>
      <trkpt lat="47.24355" lon="-1.46095">
        <ele>3.7</ele>
      </trkpt>
      <trkpt lat="47.24326" lon="-1.46195">
        <ele>3.5</ele>
      </trkpt>
      <trkpt lat="47.24331" lon="-1.46223">
        <ele>3.9</ele>
      </trkpt>
      <trkpt lat="47.244" lon="-1.46143">
        <ele>4.1</ele>
      </trkpt>
      <trkpt lat="47.24437" lon="-1.4621">
        <ele>5.8</ele>
      </trkpt>
      <trkpt lat="47.24378" lon="-1.46283">
        <ele>6.3</ele>
      </trkpt>
      <trkpt lat="47.24486" lon="-1.46498">
        <ele>4</ele>
      </trkpt>
      <trkpt lat="47.24461" lon="-1.46528">
        <ele>4</ele>
      </trkpt>
      <trkpt lat="47.24454" lon="-1.46646">
        <ele>4.3</ele>
      </trkpt>
      <trkpt lat="47.24294" lon="-1.4678">
        <ele>5</ele>
      </trkpt>
      <trkpt lat="47.24266" lon="-1.46885">
        <ele>5</ele>
      </trkpt>
      <trkpt lat="47.24281" lon="-1.46923">
        <ele>5</ele>
      </trkpt>
      <trkpt lat="47.24581" lon="-1.47215">
        <ele>8</ele>
        <time>2024-03-11T08:35:49Z</time>
      </trkpt>
      <trkpt lat="47.24635" lon="-1.47208">
        <ele>8</ele>
        <time>2024-03-11T08:37:01Z</time>
      </trkpt>
      <trkpt lat="47.24698" lon="-1.47203">
        <ele>7</ele>
        <time>2024-03-11T08:38:25Z</time>
      </trkpt>
      <trkpt lat="47.24732" lon="-1.47202">
        <ele>6</ele>
        <time>2024-03-11T08:39:11Z</time>
      </trkpt>
      <trkpt lat="47.24757" lon="-1.4721">
        <ele>6</ele>
        <time>2024-03-11T08:39:45Z</time>
      </trkpt>
      <trkpt lat="47.24814" lon="-1.47518">
        <ele>8</ele>
        <time>2024-03-11T08:44:34Z</time>
      </trkpt>
      <trkpt lat="47.24828" lon="-1.47532">
        <ele>8</ele>
        <time>2024-03-11T08:44:57Z</time>
      </trkpt>
      <trkpt lat="47.24833" lon="-1.47553">
        <ele>9</ele>
        <time>2024-03-11T08:45:17Z</time>
      </trkpt>
      <trkpt lat="47.24833" lon="-1.47583">
        <ele>9</ele>
        <time>2024-03-11T08:45:44Z</time>
      </trkpt>
      <trkpt lat="47.2485" lon="-1.47601">
        <ele>9</ele>
        <time>2024-03-11T08:46:12Z</time>
      </trkpt>
      <trkpt lat="47.24859" lon="-1.47692">
        <ele>8</ele>
        <time>2024-03-11T08:47:35Z</time>
      </trkpt>
      <trkpt lat="47.24847" lon="-1.47735">
        <ele>8</ele>
        <time>2024-03-11T08:48:17Z</time>
      </trkpt>
      <trkpt lat="47.24908" lon="-1.47767">
        <ele>8</ele>
        <time>2024-03-11T08:49:44Z</time>
      </trkpt>
      <trkpt lat="47.2492" lon="-1.47783">
        <ele>8</ele>
        <time>2024-03-11T08:50:05Z</time>
      </trkpt>
      <trkpt lat="47.24948" lon="-1.47794">
        <ele>9</ele>
        <time>2024-03-11T08:50:44Z</time>
      </trkpt>
      <trkpt lat="47.24964" lon="-1.47805">
        <ele>9</ele>
        <time>2024-03-11T08:51:07Z</time>
      </trkpt>
      <trkpt lat="47.2496" lon="-1.4783">
        <ele>9</ele>
        <time>2024-03-11T08:51:31Z</time>
      </trkpt>
      <trkpt lat="47.24951" lon="-1.47864">
        <ele>9</ele>
        <time>2024-03-11T08:52:04Z</time>
      </trkpt>
      <trkpt lat="47.24939" lon="-1.47883">
        <ele>8</ele>
        <time>2024-03-11T08:52:27Z</time>
      </trkpt>
      <trkpt lat="47.24938" lon="-1.4796">
        <ele>10</ele>
        <time>2024-03-11T08:53:37Z</time>
      </trkpt>
      <trkpt lat="47.24936" lon="-1.47976">
        <ele>11</ele>
        <time>2024-03-11T08:53:52Z</time>
      </trkpt>
      <trkpt lat="47.24936" lon="-1.4799">
        <ele>12</ele>
        <time>2024-03-11T08:54:05Z</time>
      </trkpt>
      <trkpt lat="47.24933" lon="-1.48006">
        <ele>12</ele>
        <time>2024-03-11T08:54:20Z</time>
      </trkpt>
      <trkpt lat="47.24938" lon="-1.48019">
        <ele>13</ele>
        <time>2024-03-11T08:54:33Z</time>
      </trkpt>
      <trkpt lat="47.24935" lon="-1.4803">
        <ele>14</ele>
        <time>2024-03-11T08:54:44Z</time>
      </trkpt>
      <trkpt lat="47.24939" lon="-1.48044">
        <ele>14</ele>
        <time>2024-03-11T08:54:58Z</time>
      </trkpt>
      <trkpt lat="47.24941" lon="-1.4806">
        <ele>15</ele>
        <time>2024-03-11T08:55:12Z</time>
      </trkpt>
      <trkpt lat="47.24945" lon="-1.48091">
        <ele>16</ele>
        <time>2024-03-11T08:55:41Z</time>
      </trkpt>
      <trkpt lat="47.24952" lon="-1.48113">
        <ele>16</ele>
        <time>2024-03-11T08:56:03Z</time>
      </trkpt>
      <trkpt lat="47.24953" lon="-1.48117">
        <ele>16</ele>
        <time>2024-03-11T08:56:07Z</time>
      </trkpt>
      <trkpt lat="47.24961" lon="-1.48133">
        <ele>15</ele>
        <time>2024-03-11T08:56:25Z</time>
      </trkpt>
      <trkpt lat="47.24963" lon="-1.48148">
        <ele>15</ele>
        <time>2024-03-11T08:56:39Z</time>
      </trkpt>
      <trkpt lat="47.24958" lon="-1.48164">
        <ele>15</ele>
        <time>2024-03-11T08:56:55Z</time>
      </trkpt>
      <trkpt lat="47.24956" lon="-1.48187">
        <ele>14</ele>
        <time>2024-03-11T08:57:16Z</time>
      </trkpt>
      <trkpt lat="47.24956" lon="-1.4821">
        <ele>13</ele>
        <time>2024-03-11T08:57:36Z</time>
      </trkpt>
      <trkpt lat="47.24957" lon="-1.48237">
        <ele>13</ele>
        <time>2024-03-11T08:58:01Z</time>
      </trkpt>
      <trkpt lat="47.24968" lon="-1.48265">
        <ele>13</ele>
        <time>2024-03-11T08:58:30Z</time>
      </trkpt>
      <trkpt lat="47.24995" lon="-1.48285">
        <ele>13</ele>
        <time>2024-03-11T08:59:11Z</time>
      </trkpt>
      <trkpt lat="47.24998" lon="-1.48297">
        <ele>13</ele>
        <time>2024-03-11T08:59:22Z</time>
      </trkpt>
      <trkpt lat="47.24971" lon="-1.48392">
        <ele>12</ele>
        <time>2024-03-11T09:00:55Z</time>
      </trkpt>
      <trkpt lat="47.24976" lon="-1.48418">
        <ele>12</ele>
        <time>2024-03-11T09:01:20Z</time>
        <extensions>
          <visugpx:TrkExtension xmlns:visugpx="https://www.visugpx.com/editgpx/">
            <visugpx:node>7</visugpx:node>
            </visugpx:TrkExtension>
        </extensions>
      </trkpt>
    </trkseg>
  </trk>
</gpx>